Freyburg, Texas
Current Conditions -  °F | °C
As of 5:55 AM on Thursday 23 Oct 2014 (Local Time) from K3T5 Reporting Station
Clear Clear  
Wind Chill: 65°   Ceiling: Unl
Heat Index: 65°   Visibility: 7mi
Dew Point: 63°   Wind: 3mph
Humidity: 94%   Direction: 350°N
Pressure: 30.07"   Gusts: NA
Location:  29.7125°N, 96.9231°W
Report Text: K3T5 231055Z AUTO 35003KT 7SM CLR 18/17 A3007 RMK AO2 T01830174
Loading
Personal Weather Stations






























Interactive Weather Map
Tropical Storm Tracking
New forecast layout! Learn more

10-Day Weather Forecast

Advertisements
Track Severe Weather on mobile